createdAt,value
2023-05-05T00:00:10.284Z,1015.69
2023-05-05T00:01:10.309Z,1015.65
2023-05-05T00:02:10.300Z,1015.61
2023-05-05T00:03:10.339Z,1015.63
2023-05-05T00:04:10.267Z,1015.62
2023-05-05T00:05:10.229Z,1015.62
2023-05-05T00:06:10.250Z,1015.64
2023-05-05T00:07:10.208Z,1015.64
2023-05-05T00:08:10.190Z,1015.63
2023-05-05T00:09:10.183Z,1015.66
2023-05-05T00:10:10.318Z,1015.65
2023-05-05T00:11:10.185Z,1015.63
2023-05-05T00:12:10.159Z,1015.65
2023-05-05T00:13:10.152Z,1015.65
2023-05-05T00:14:10.126Z,1015.64
2023-05-05T00:15:10.126Z,1015.67
2023-05-05T00:16:10.118Z,1015.70
2023-05-05T00:17:10.168Z,1015.68
2023-05-05T00:18:10.098Z,1015.70
2023-05-05T00:19:10.068Z,1015.63
2023-05-05T00:20:10.310Z,1015.67
2023-05-05T00:21:10.050Z,1015.64
2023-05-05T00:22:10.050Z,1015.68
2023-05-05T00:23:10.054Z,1015.64
2023-05-05T00:24:10.063Z,1015.66
2023-05-05T00:25:10.055Z,1015.64
2023-05-05T00:26:09.998Z,1015.63
2023-05-05T00:27:09.981Z,1015.65
2023-05-05T00:28:09.963Z,1015.59
2023-05-05T00:29:09.983Z,1015.57
2023-05-05T00:30:10.072Z,1015.56
2023-05-05T00:31:09.964Z,1015.59
2023-05-05T00:32:09.931Z,1015.58
2023-05-05T00:33:09.916Z,1015.54
2023-05-05T00:34:09.988Z,1015.54
2023-05-05T00:35:09.910Z,1015.54
2023-05-05T00:36:09.894Z,1015.54
2023-05-05T00:37:09.879Z,1015.53
2023-05-05T00:38:09.902Z,1015.49
2023-05-05T00:39:09.868Z,1015.48
2023-05-05T00:40:10.033Z,1015.45
2023-05-05T00:41:09.826Z,1015.50
2023-05-05T00:42:09.831Z,1015.47
2023-05-05T00:43:09.829Z,1015.47
2023-05-05T00:44:09.798Z,1015.48
2023-05-05T00:45:09.785Z,1015.49
2023-05-05T00:46:09.826Z,1015.49
2023-05-05T00:47:09.764Z,1015.47
2023-05-05T00:48:09.900Z,1015.45
2023-05-05T00:49:09.763Z,1015.46
2023-05-05T00:50:09.908Z,1015.44
2023-05-05T00:51:09.750Z,1015.50
2023-05-05T00:52:09.732Z,1015.43
2023-05-05T00:53:09.720Z,1015.42
2023-05-05T00:54:09.684Z,1015.40
2023-05-05T00:55:09.677Z,1015.43
2023-05-05T00:56:09.665Z,1015.38
2023-05-05T00:57:09.688Z,1015.42
2023-05-05T00:58:09.665Z,1015.38
2023-05-05T00:59:09.655Z,1015.39
2023-05-05T01:00:09.853Z,1015.36
2023-05-05T01:01:09.630Z,1015.36
2023-05-05T01:02:09.623Z,1015.37
2023-05-05T01:03:09.636Z,1015.38
2023-05-05T01:04:09.580Z,1015.37
2023-05-05T01:05:09.562Z,1015.35
2023-05-05T01:06:09.670Z,1015.32
2023-05-05T01:07:09.565Z,1015.30
2023-05-05T01:08:09.537Z,1015.34
2023-05-05T01:09:09.524Z,1015.33
2023-05-05T01:10:19.790Z,1015.34
2023-05-05T01:11:10.544Z,1015.35
2023-05-05T01:12:09.488Z,1015.36
2023-05-05T01:13:09.528Z,1015.36
2023-05-05T01:14:09.472Z,1015.37
2023-05-05T01:15:09.481Z,1015.37
2023-05-05T01:16:09.525Z,1015.33
2023-05-05T01:17:09.430Z,1015.34
2023-05-05T01:18:09.426Z,1015.36
2023-05-05T01:19:09.418Z,1015.31
2023-05-05T01:20:09.591Z,1015.34
2023-05-05T01:21:09.382Z,1015.36
2023-05-05T01:22:09.393Z,1015.33
2023-05-05T01:23:09.366Z,1015.26
2023-05-05T01:24:09.384Z,1015.30
2023-05-05T01:25:09.401Z,1015.28
2023-05-05T01:26:09.337Z,1015.30
2023-05-05T01:27:09.324Z,1015.28
2023-05-05T01:28:09.317Z,1015.26
2023-05-05T01:29:09.354Z,1015.24
2023-05-05T01:30:09.506Z,1015.21
2023-05-05T01:31:09.310Z,1015.26
2023-05-05T01:32:09.269Z,1015.27
2023-05-05T01:33:09.270Z,1015.25
2023-05-05T01:34:09.272Z,1015.26
2023-05-05T01:35:09.250Z,1015.27
2023-05-05T01:36:09.220Z,1015.22
2023-05-05T01:37:09.218Z,1015.23
2023-05-05T01:38:09.214Z,1015.22
2023-05-05T01:39:09.210Z,1015.23
2023-05-05T01:40:09.409Z,1015.26
2023-05-05T01:41:09.165Z,1015.25
2023-05-05T01:42:09.163Z,1015.28
2023-05-05T01:43:09.140Z,1015.27
2023-05-05T01:44:09.152Z,1015.26
2023-05-05T01:45:09.124Z,1015.30
2023-05-05T01:46:09.164Z,1015.30
2023-05-05T01:47:09.097Z,1015.32
2023-05-05T01:48:09.110Z,1015.27
2023-05-05T01:49:09.103Z,1015.32
2023-05-05T01:50:09.387Z,1015.34
2023-05-05T01:51:09.056Z,1015.34
2023-05-05T01:52:09.043Z,1015.30
2023-05-05T01:53:09.062Z,1015.36
2023-05-05T01:54:09.047Z,1015.32
2023-05-05T01:55:09.006Z,1015.31
2023-05-05T01:56:08.996Z,1015.33
2023-05-05T01:57:08.984Z,1015.32
2023-05-05T01:58:08.993Z,1015.31
2023-05-05T01:59:08.960Z,1015.28
2023-05-05T02:00:09.267Z,1015.30
2023-05-05T02:01:08.998Z,1015.32
2023-05-05T02:02:08.941Z,1015.29
2023-05-05T02:03:09.088Z,1015.32
2023-05-05T02:04:08.908Z,1015.29
2023-05-05T02:05:08.926Z,1015.28
2023-05-05T02:06:08.893Z,1015.24
2023-05-05T02:07:08.901Z,1015.29
2023-05-05T02:08:08.862Z,1015.28
2023-05-05T02:09:08.856Z,1015.23
2023-05-05T02:10:09.132Z,1015.25
2023-05-05T02:11:08.833Z,1015.22
2023-05-05T02:12:08.821Z,1015.20
2023-05-05T02:13:08.922Z,1015.21
2023-05-05T02:14:08.798Z,1015.23
2023-05-05T02:15:08.813Z,1015.21
2023-05-05T02:16:08.852Z,1015.25
2023-05-05T02:17:08.771Z,1015.19
2023-05-05T02:18:08.766Z,1015.23
2023-05-05T02:19:08.751Z,1015.19
2023-05-05T02:20:08.949Z,1015.22
2023-05-05T02:21:08.750Z,1015.20
2023-05-05T02:22:08.716Z,1015.17
2023-05-05T02:23:08.739Z,1015.17
2023-05-05T02:24:08.692Z,1015.18
2023-05-05T02:25:08.695Z,1015.18
2023-05-05T02:26:08.722Z,1015.21
2023-05-05T02:27:08.657Z,1015.20
2023-05-05T02:28:08.648Z,1015.20
2023-05-05T02:29:08.636Z,1015.18
2023-05-05T02:30:08.970Z,1015.19
2023-05-05T02:31:08.666Z,1015.20
2023-05-05T02:32:08.602Z,1015.16
2023-05-05T02:33:08.599Z,1015.17
2023-05-05T02:34:08.587Z,1015.19
2023-05-05T02:35:08.589Z,1015.18
2023-05-05T02:36:08.562Z,1015.16
2023-05-05T02:37:08.556Z,1015.20
2023-05-05T02:38:08.534Z,1015.13
2023-05-05T02:39:08.546Z,1015.18
2023-05-05T02:40:08.770Z,1015.17
2023-05-05T02:41:08.515Z,1015.16
2023-05-05T02:42:08.514Z,1015.14
2023-05-05T02:43:08.530Z,1015.13
2023-05-05T02:44:08.487Z,1015.15
2023-05-05T02:45:08.484Z,1015.09
2023-05-05T02:46:08.470Z,1015.11
2023-05-05T02:47:08.441Z,1015.10
2023-05-05T02:48:08.482Z,1015.10
2023-05-05T02:49:08.422Z,1015.09
2023-05-05T02:50:08.782Z,1015.08
2023-05-05T02:51:08.392Z,1015.05
2023-05-05T02:52:08.383Z,1015.06
2023-05-05T02:53:08.387Z,1015.08
2023-05-05T02:54:08.380Z,1015.09
2023-05-05T02:55:08.367Z,1015.10
2023-05-05T02:56:08.365Z,1015.11
2023-05-05T02:57:08.342Z,1015.09
2023-05-05T02:58:08.354Z,1015.13
2023-05-05T02:59:08.311Z,1015.07
2023-05-05T03:00:08.494Z,1015.12
2023-05-05T03:01:08.326Z,1015.12
2023-05-05T03:02:08.283Z,1015.08
2023-05-05T03:03:08.306Z,1015.10
2023-05-05T03:04:08.343Z,1015.10
2023-05-05T03:05:08.243Z,1015.13
2023-05-05T03:06:08.227Z,1015.12
2023-05-05T03:07:08.219Z,1015.10
2023-05-05T03:08:08.295Z,1015.10
2023-05-05T03:09:08.190Z,1015.10
2023-05-05T03:10:08.534Z,1015.13
2023-05-05T03:11:08.184Z,1015.12
2023-05-05T03:12:08.205Z,1015.14
2023-05-05T03:13:08.231Z,1015.09
2023-05-05T03:14:08.162Z,1015.07
2023-05-05T03:15:08.139Z,1015.08
2023-05-05T03:16:08.156Z,1015.08
2023-05-05T03:17:08.121Z,1015.04
2023-05-05T03:18:08.102Z,1015.06
2023-05-05T03:19:08.090Z,1015.03
2023-05-05T03:20:08.356Z,1015.02
2023-05-05T03:21:08.083Z,1015.04
2023-05-05T03:22:08.086Z,1015.05
2023-05-05T03:23:08.052Z,1015.08
2023-05-05T03:24:08.034Z,1015.06
2023-05-05T03:25:08.357Z,1015.06
2023-05-05T03:26:08.033Z,1015.06
2023-05-05T03:27:07.997Z,1015.06
2023-05-05T03:28:08.004Z,1015.05
2023-05-05T03:29:07.979Z,1015.05
2023-05-05T03:30:08.247Z,1015.05
2023-05-05T03:31:07.956Z,1015.13
2023-05-05T03:32:07.987Z,1015.15
2023-05-05T03:33:07.999Z,1015.22
2023-05-05T03:34:07.939Z,1015.19
2023-05-05T03:35:07.945Z,1015.20
2023-05-05T03:36:07.938Z,1015.18
2023-05-05T03:37:07.896Z,1015.20
2023-05-05T03:38:15.851Z,1015.19
2023-05-05T03:39:07.864Z,1015.20
2023-05-05T03:40:08.173Z,1015.15
2023-05-05T03:41:07.856Z,1015.15
2023-05-05T03:42:07.836Z,1015.16
2023-05-05T03:43:07.832Z,1015.22
2023-05-05T03:44:07.820Z,1015.23
2023-05-05T03:45:07.859Z,1015.18
2023-05-05T03:46:07.860Z,1015.21
2023-05-05T03:47:07.786Z,1015.22
2023-05-05T03:48:07.809Z,1015.18
2023-05-05T03:49:07.757Z,1015.17
2023-05-05T03:50:08.056Z,1015.15
2023-05-05T03:51:07.751Z,1015.12
2023-05-05T03:52:07.740Z,1015.18
2023-05-05T03:53:07.762Z,1015.10
2023-05-05T03:54:07.821Z,1015.11
2023-05-05T03:55:07.747Z,1015.13
2023-05-05T03:56:07.685Z,1015.08
2023-05-05T03:57:07.682Z,1015.09
2023-05-05T03:58:07.671Z,1015.14
2023-05-05T03:59:07.672Z,1015.10
2023-05-05T04:00:07.918Z,1015.12
2023-05-05T04:01:07.627Z,1015.11
2023-05-05T04:02:07.735Z,1015.15
2023-05-05T04:03:07.842Z,1015.11
2023-05-05T04:04:07.686Z,1015.11
2023-05-05T04:05:07.590Z,1015.13
2023-05-05T04:06:07.580Z,1015.10
2023-05-05T04:07:07.582Z,1015.05
2023-05-05T04:08:07.574Z,1015.03
2023-05-05T04:09:07.569Z,1015.03
2023-05-05T04:10:07.826Z,1015.04
2023-05-05T04:11:07.528Z,1015.03
2023-05-05T04:12:07.513Z,1015.01
2023-05-05T04:13:07.588Z,1015.07
2023-05-05T04:14:07.497Z,1015.06
2023-05-05T04:15:07.491Z,1014.99
2023-05-05T04:16:07.549Z,1015.07
2023-05-05T04:17:07.462Z,1015.06
2023-05-05T04:18:07.502Z,1015.04
2023-05-05T04:19:07.446Z,1015.09
2023-05-05T04:20:07.556Z,1015.05
2023-05-05T04:21:07.418Z,1015.06
2023-05-05T04:22:07.444Z,1015.04
2023-05-05T04:23:07.413Z,1015.06
2023-05-05T04:24:07.392Z,1015.04
2023-05-05T04:25:07.406Z,1015.07
2023-05-05T04:26:07.365Z,1015.11
2023-05-05T04:27:07.355Z,1015.11
2023-05-05T04:28:07.345Z,1015.17
2023-05-05T04:29:07.326Z,1015.22
2023-05-05T04:30:07.467Z,1015.14
2023-05-05T04:31:07.353Z,1015.19
2023-05-05T04:32:07.304Z,1015.26
2023-05-05T04:33:07.287Z,1015.19
2023-05-05T04:34:07.298Z,1015.26
2023-05-05T04:35:07.290Z,1015.24
2023-05-05T04:36:07.264Z,1015.25
2023-05-05T04:37:07.239Z,1015.30
2023-05-05T04:38:07.231Z,1015.29
2023-05-05T04:39:07.370Z,1015.31
2023-05-05T04:40:07.392Z,1015.26
2023-05-05T04:41:07.234Z,1015.26
2023-05-05T04:42:07.187Z,1015.31
2023-05-05T04:43:07.187Z,1015.28
2023-05-05T04:44:07.165Z,1015.30
2023-05-05T04:45:07.186Z,1015.32
2023-05-05T04:46:07.182Z,1015.34
2023-05-05T04:47:07.130Z,1015.29
2023-05-05T04:48:07.144Z,1015.39
2023-05-05T04:49:07.120Z,1015.40
2023-05-05T04:50:07.400Z,1015.33
2023-05-05T04:51:07.105Z,1015.33
2023-05-05T04:52:07.081Z,1015.33
2023-05-05T04:53:07.085Z,1015.31
2023-05-05T04:54:07.058Z,1015.43
2023-05-05T04:55:07.442Z,1015.35
2023-05-05T04:56:07.030Z,1015.39
2023-05-05T04:57:07.020Z,1015.42
2023-05-05T04:58:07.022Z,1015.45
2023-05-05T04:59:07.041Z,1015.42
2023-05-05T05:00:07.307Z,1015.45
2023-05-05T05:01:06.977Z,1015.47
2023-05-05T05:02:07.041Z,1015.51
2023-05-05T05:03:07.016Z,1015.46
2023-05-05T05:04:06.974Z,1015.57
2023-05-05T05:05:07.009Z,1015.48
2023-05-05T05:06:06.937Z,1015.49
2023-05-05T05:07:06.909Z,1015.50
2023-05-05T05:08:06.901Z,1015.49
2023-05-05T05:09:06.939Z,1015.53
2023-05-05T05:10:07.221Z,1015.54
2023-05-05T05:11:06.867Z,1015.48
2023-05-05T05:12:06.881Z,1015.49
2023-05-05T05:13:06.869Z,1015.47
2023-05-05T05:14:06.867Z,1015.50
2023-05-05T05:15:06.824Z,1015.54
2023-05-05T05:16:06.848Z,1015.57
2023-05-05T05:17:06.808Z,1015.53
2023-05-05T05:18:06.836Z,1015.55
2023-05-05T05:19:06.865Z,1015.51
2023-05-05T05:20:06.963Z,1015.54
2023-05-05T05:21:06.772Z,1015.55
2023-05-05T05:22:06.775Z,1015.53
2023-05-05T05:23:06.799Z,1015.50
2023-05-05T05:24:06.749Z,1015.50
2023-05-05T05:25:06.711Z,1015.56
2023-05-05T05:26:06.694Z,1015.59
2023-05-05T05:27:09.169Z,1015.54
2023-05-05T05:28:10.768Z,1015.54
2023-05-05T05:29:06.703Z,1015.53
2023-05-05T05:30:06.878Z,1015.56
2023-05-05T05:31:06.642Z,1015.56
2023-05-05T05:32:06.830Z,1015.59
2023-05-05T05:33:06.786Z,1015.59
2023-05-05T05:34:06.650Z,1015.55
2023-05-05T05:35:06.603Z,1015.54
2023-05-05T05:36:06.590Z,1015.60
2023-05-05T05:37:06.604Z,1015.58
2023-05-05T05:38:06.636Z,1015.62
2023-05-05T05:39:06.559Z,1015.58
2023-05-05T05:40:06.851Z,1015.64
2023-05-05T05:41:06.534Z,1015.54
2023-05-05T05:42:06.554Z,1015.58
2023-05-05T05:43:06.545Z,1015.60
2023-05-05T05:44:06.498Z,1015.63
2023-05-05T05:45:06.492Z,1015.59
2023-05-05T05:46:09.084Z,1015.61
2023-05-05T05:47:06.571Z,1015.60
2023-05-05T05:48:06.483Z,1015.67
2023-05-05T05:49:06.466Z,1015.67
2023-05-05T05:50:06.538Z,1015.61
2023-05-05T05:51:06.453Z,1015.62
2023-05-05T05:52:06.432Z,1015.58
2023-05-05T05:53:06.412Z,1015.59
2023-05-05T05:54:06.408Z,1015.57
2023-05-05T05:55:06.387Z,1015.62
2023-05-05T05:56:06.378Z,1015.52
2023-05-05T05:57:06.356Z,1015.57
2023-05-05T05:58:06.370Z,1015.63
2023-05-05T05:59:06.342Z,1015.50
2023-05-05T06:00:06.626Z,1015.53
2023-05-05T06:01:06.350Z,1015.48
2023-05-05T06:02:06.356Z,1015.45
2023-05-05T06:03:06.442Z,1015.44
2023-05-05T06:04:06.446Z,1015.45
2023-05-05T06:05:06.310Z,1015.56
2023-05-05T06:06:06.353Z,1015.65
2023-05-05T06:07:06.254Z,1015.69
2023-05-05T06:08:06.245Z,1015.68
2023-05-05T06:09:06.247Z,1015.62
2023-05-05T06:10:22.638Z,1015.63
2023-05-05T06:11:07.204Z,1015.63
2023-05-05T06:12:06.194Z,1015.52
2023-05-05T06:13:06.217Z,1015.57
2023-05-05T06:14:06.177Z,1015.54
2023-05-05T06:15:06.182Z,1015.59
2023-05-05T06:16:06.186Z,1015.69
2023-05-05T06:17:06.145Z,1015.56
2023-05-05T06:18:06.154Z,1015.54
2023-05-05T06:19:06.149Z,1015.63
2023-05-05T06:20:06.247Z,1015.65
2023-05-05T06:21:06.100Z,1015.65
2023-05-05T06:22:06.105Z,1015.65
2023-05-05T06:23:06.108Z,1015.73
2023-05-05T06:24:06.074Z,1015.68
2023-05-05T06:25:06.061Z,1015.68
2023-05-05T06:26:06.104Z,1015.65
2023-05-05T06:27:06.036Z,1015.65
2023-05-05T06:28:06.046Z,1015.61
2023-05-05T06:29:06.039Z,1015.61
2023-05-05T06:30:06.210Z,1015.64
2023-05-05T06:31:06.013Z,1015.64
2023-05-05T06:32:05.976Z,1015.60
2023-05-05T06:33:06.065Z,1015.56
2023-05-05T06:34:05.979Z,1015.59
2023-05-05T06:35:05.934Z,1015.66
2023-05-05T06:36:06.015Z,1015.66
2023-05-05T06:37:05.918Z,1015.67
2023-05-05T06:38:05.955Z,1015.65
2023-05-05T06:39:05.910Z,1015.65
2023-05-05T06:40:05.965Z,1015.64
2023-05-05T06:41:05.911Z,1015.65
2023-05-05T06:42:05.879Z,1015.64
2023-05-05T06:43:05.918Z,1015.70
2023-05-05T06:44:05.836Z,1015.65
2023-05-05T06:45:05.827Z,1015.69
2023-05-05T06:46:05.831Z,1015.66
2023-05-05T06:47:05.938Z,1015.60
2023-05-05T06:48:05.824Z,1015.58
2023-05-05T06:49:05.791Z,1015.59
2023-05-05T06:50:05.935Z,1015.71
2023-05-05T06:51:05.761Z,1015.71
2023-05-05T06:52:05.788Z,1015.71
2023-05-05T06:53:05.783Z,1015.70
2023-05-05T06:54:05.733Z,1015.74
2023-05-05T06:55:05.722Z,1015.62
2023-05-05T06:56:05.714Z,1015.67
2023-05-05T06:57:05.780Z,1015.71
2023-05-05T06:58:05.791Z,1015.78
2023-05-05T06:59:05.672Z,1015.74
2023-05-05T07:00:05.893Z,1015.72
2023-05-05T07:01:05.706Z,1015.82
2023-05-05T07:02:05.651Z,1015.70
2023-05-05T07:03:05.662Z,1015.80
2023-05-05T07:04:05.666Z,1015.76
2023-05-05T07:05:05.622Z,1015.68
2023-05-05T07:06:05.629Z,1015.63
2023-05-05T07:07:05.605Z,1015.67
2023-05-05T07:08:05.599Z,1015.75
2023-05-05T07:09:05.576Z,1015.76
2023-05-05T07:10:05.736Z,1015.75
2023-05-05T07:11:05.576Z,1015.67
2023-05-05T07:12:05.568Z,1015.70
2023-05-05T07:13:05.595Z,1015.73
2023-05-05T07:14:05.625Z,1015.71
2023-05-05T07:15:19.172Z,1015.69
2023-05-05T07:16:06.592Z,1015.71
2023-05-05T07:17:05.486Z,1015.85
2023-05-05T07:18:05.541Z,1015.80
2023-05-05T07:19:05.519Z,1015.80
2023-05-05T07:20:05.459Z,1015.85
2023-05-05T07:21:05.432Z,1015.84
2023-05-05T07:22:05.433Z,1015.81
2023-05-05T07:23:05.468Z,1015.73
2023-05-05T07:24:05.409Z,1015.81
2023-05-05T07:25:05.399Z,1015.74
2023-05-05T07:26:05.399Z,1015.83
2023-05-05T07:27:05.371Z,1015.80
2023-05-05T07:28:05.364Z,1015.82
2023-05-05T07:29:05.347Z,1015.85
2023-05-05T07:30:10.086Z,1015.86
2023-05-05T07:31:06.340Z,1015.84
2023-05-05T07:32:05.360Z,1015.84
2023-05-05T07:33:05.344Z,1015.93
2023-05-05T07:34:05.295Z,1015.86
2023-05-05T07:35:05.304Z,1015.87
2023-05-05T07:36:05.282Z,1015.85
2023-05-05T07:37:05.321Z,1015.93
2023-05-05T07:38:05.269Z,1015.91
2023-05-05T07:39:05.242Z,1016.01
2023-05-05T07:40:05.252Z,1015.93
2023-05-05T07:41:05.234Z,1016.04
2023-05-05T07:42:05.223Z,1015.95
2023-05-05T07:43:05.207Z,1016.02
2023-05-05T07:44:05.219Z,1015.98
2023-05-05T07:45:05.185Z,1015.97
2023-05-05T07:46:05.362Z,1016.00
2023-05-05T07:47:05.151Z,1015.99
2023-05-05T07:48:05.254Z,1015.99
2023-05-05T07:49:05.191Z,1016.03
2023-05-05T07:50:05.152Z,1015.96
2023-05-05T07:51:05.106Z,1016.02
2023-05-05T07:52:05.100Z,1015.98
2023-05-05T07:53:13.819Z,1016.07
2023-05-05T07:54:06.146Z,1016.04
2023-05-05T07:55:05.085Z,1015.98
2023-05-05T07:56:05.050Z,1016.13
2023-05-05T07:57:05.042Z,1016.01
2023-05-05T07:58:05.038Z,1016.02
2023-05-05T07:59:05.049Z,1016.03
2023-05-05T08:00:05.079Z,1015.97
2023-05-05T08:01:05.063Z,1016.13
2023-05-05T08:02:05.088Z,1015.91
2023-05-05T08:03:05.065Z,1015.95
2023-05-05T08:04:05.017Z,1015.91
2023-05-05T08:05:05.096Z,1015.96
2023-05-05T08:06:04.946Z,1015.88
2023-05-05T08:07:04.931Z,1015.85
2023-05-05T08:08:04.939Z,1015.88
2023-05-05T08:09:04.917Z,1015.87
2023-05-05T08:10:04.895Z,1015.99
2023-05-05T08:11:04.887Z,1015.96
2023-05-05T08:12:04.907Z,1015.82
2023-05-05T08:13:04.917Z,1015.87
2023-05-05T08:14:04.854Z,1015.94
2023-05-05T08:15:04.903Z,1015.83
2023-05-05T08:16:04.918Z,1015.90
2023-05-05T08:17:04.833Z,1015.90
2023-05-05T08:18:04.970Z,1015.90
2023-05-05T08:19:09.729Z,1015.82
2023-05-05T08:20:05.795Z,1015.90
2023-05-05T08:21:04.800Z,1015.75
2023-05-05T08:22:04.871Z,1015.81
2023-05-05T08:23:04.777Z,1015.79
2023-05-05T08:24:04.760Z,1015.79
2023-05-05T08:25:04.749Z,1015.82
2023-05-05T08:26:04.782Z,1015.76
2023-05-05T08:27:04.732Z,1015.88
2023-05-05T08:28:04.709Z,1015.84
2023-05-05T08:29:04.700Z,1015.83
2023-05-05T08:30:04.694Z,1015.83
2023-05-05T08:31:04.738Z,1015.87
2023-05-05T08:32:04.679Z,1015.92
2023-05-05T08:33:04.699Z,1015.91
2023-05-05T08:34:04.747Z,1015.85
2023-05-05T08:35:04.670Z,1015.81
2023-05-05T08:36:04.639Z,1015.82
2023-05-05T08:37:04.614Z,1015.85
2023-05-05T08:38:04.613Z,1015.79
2023-05-05T08:39:04.590Z,1015.80
2023-05-05T08:40:04.584Z,1015.74
2023-05-05T08:41:04.591Z,1015.80
2023-05-05T08:42:04.579Z,1015.81
2023-05-05T08:43:04.557Z,1015.74
2023-05-05T08:44:04.558Z,1015.72
2023-05-05T08:45:04.604Z,1015.71
2023-05-05T08:46:04.624Z,1015.75
2023-05-05T08:47:04.572Z,1015.67
2023-05-05T08:48:04.544Z,1015.64
2023-05-05T08:49:04.483Z,1015.71
2023-05-05T08:50:04.629Z,1015.67
2023-05-05T08:51:05.694Z,1015.76
2023-05-05T08:52:04.451Z,1015.73
2023-05-05T08:53:04.493Z,1015.69
2023-05-05T08:54:04.429Z,1015.69
2023-05-05T08:55:04.433Z,1015.76
2023-05-05T08:56:04.407Z,1015.76
2023-05-05T08:57:04.397Z,1015.70
2023-05-05T08:58:04.385Z,1015.67
2023-05-05T08:59:04.378Z,1015.66
2023-05-05T09:00:04.382Z,1015.71
2023-05-05T09:01:04.383Z,1015.72
2023-05-05T09:02:04.356Z,1015.71
2023-05-05T09:03:04.542Z,1015.73
2023-05-05T09:04:04.339Z,1015.82
2023-05-05T09:05:04.413Z,1015.80
2023-05-05T09:06:04.485Z,1015.79
2023-05-05T09:07:04.300Z,1015.78
2023-05-05T09:08:04.292Z,1015.85
2023-05-05T09:09:04.269Z,1015.73
2023-05-05T09:10:04.257Z,1015.75
2023-05-05T09:11:04.264Z,1015.81
2023-05-05T09:12:04.238Z,1015.81
2023-05-05T09:13:04.292Z,1015.76
2023-05-05T09:14:04.225Z,1015.76
2023-05-05T09:15:04.228Z,1015.75
2023-05-05T09:16:04.195Z,1015.79
2023-05-05T09:17:04.321Z,1015.72
2023-05-05T09:18:04.258Z,1015.76
2023-05-05T09:19:04.168Z,1015.76
2023-05-05T09:20:04.181Z,1015.72
2023-05-05T09:21:04.146Z,1015.75
2023-05-05T09:22:04.157Z,1015.82
2023-05-05T09:23:04.140Z,1015.72
2023-05-05T09:24:08.226Z,1015.74
2023-05-05T09:25:04.100Z,1015.69
2023-05-05T09:26:04.122Z,1015.78
2023-05-05T09:27:04.093Z,1015.73
2023-05-05T09:28:04.084Z,1015.69
2023-05-05T09:29:04.118Z,1015.69
2023-05-05T09:30:04.106Z,1015.76
2023-05-05T09:31:04.072Z,1015.70
2023-05-05T09:32:04.080Z,1015.70
2023-05-05T09:33:04.119Z,1015.76
2023-05-05T09:34:04.110Z,1015.73
2023-05-05T09:35:04.113Z,1015.71
2023-05-05T09:36:04.024Z,1015.68
2023-05-05T09:37:03.976Z,1015.69
2023-05-05T09:38:04.166Z,1015.71
2023-05-05T09:39:03.968Z,1015.59
2023-05-05T09:40:03.964Z,1015.71
2023-05-05T09:41:03.934Z,1015.54
2023-05-05T09:42:03.922Z,1015.58
2023-05-05T09:43:03.936Z,1015.48
2023-05-05T09:44:03.908Z,1015.62
2023-05-05T09:45:03.891Z,1015.55
2023-05-05T09:46:03.895Z,1015.55
2023-05-05T09:47:09.557Z,1015.59
2023-05-05T09:48:04.933Z,1015.55
2023-05-05T09:49:03.852Z,1015.62
2023-05-05T09:50:03.850Z,1015.73
2023-05-05T09:51:03.825Z,1015.58
2023-05-05T09:52:03.845Z,1015.64
2023-05-05T09:53:03.800Z,1015.69
2023-05-05T09:54:03.986Z,1015.62
2023-05-05T09:55:03.834Z,1015.58
2023-05-05T09:56:03.789Z,1015.67
2023-05-05T09:57:03.774Z,1015.66
2023-05-05T09:58:03.802Z,1015.76
2023-05-05T09:59:03.735Z,1015.58
2023-05-05T10:00:03.821Z,1015.64
2023-05-05T10:01:03.732Z,1015.60
2023-05-05T10:02:03.724Z,1015.58
2023-05-05T10:03:03.716Z,1015.58
2023-05-05T10:04:03.689Z,1015.65
2023-05-05T10:05:03.705Z,1015.63
2023-05-05T10:06:03.702Z,1015.70
2023-05-05T10:07:03.654Z,1015.73
2023-05-05T10:08:03.661Z,1015.59
2023-05-05T10:09:03.628Z,1015.59
2023-05-05T10:10:03.656Z,1015.59
2023-05-05T10:11:03.619Z,1015.73
2023-05-05T10:12:03.604Z,1015.61
2023-05-05T10:13:03.639Z,1015.57
2023-05-05T10:14:03.578Z,1015.62
2023-05-05T10:15:03.579Z,1015.67
2023-05-05T10:16:03.617Z,1015.55
2023-05-05T10:17:03.543Z,1015.57
2023-05-05T10:18:08.243Z,1015.56
2023-05-05T10:19:04.520Z,1015.50
2023-05-05T10:20:03.534Z,1015.53
2023-05-05T10:21:03.497Z,1015.42
2023-05-05T10:22:03.507Z,1015.41
2023-05-05T10:23:03.476Z,1015.41
2023-05-05T10:24:03.468Z,1015.40
2023-05-05T10:25:03.498Z,1015.34
2023-05-05T10:26:03.645Z,1015.35
2023-05-05T10:27:03.436Z,1015.38
2023-05-05T10:28:03.424Z,1015.41
2023-05-05T10:29:03.418Z,1015.36
2023-05-05T10:30:03.418Z,1015.36
2023-05-05T10:31:12.901Z,1015.38
2023-05-05T10:32:21.425Z,1015.33
2023-05-05T10:33:13.562Z,1015.34
2023-05-05T10:34:04.810Z,1015.40
2023-05-05T10:35:03.383Z,1015.35
2023-05-05T10:36:03.350Z,1015.21
2023-05-05T10:37:03.337Z,1015.30
2023-05-05T10:38:03.325Z,1015.40
2023-05-05T10:39:03.367Z,1015.38
2023-05-05T10:40:03.309Z,1015.39
2023-05-05T10:41:03.287Z,1015.35
2023-05-05T10:42:03.500Z,1015.30
2023-05-05T10:43:03.265Z,1015.31
2023-05-05T10:44:04.780Z,1015.32
2023-05-05T10:45:03.332Z,1015.43
2023-05-05T10:46:03.241Z,1015.26
2023-05-05T10:47:03.220Z,1015.23
2023-05-05T10:48:03.417Z,1015.29
2023-05-05T10:49:03.216Z,1015.25
2023-05-05T10:50:03.194Z,1015.27
2023-05-05T10:51:03.189Z,1015.38
2023-05-05T10:52:03.172Z,1015.22
2023-05-05T10:53:03.201Z,1015.18
2023-05-05T10:54:03.179Z,1015.18
2023-05-05T10:55:03.141Z,1015.28
2023-05-05T10:56:03.147Z,1015.20
2023-05-05T10:57:03.117Z,1015.18
2023-05-05T10:58:03.215Z,1015.23
2023-05-05T10:59:03.102Z,1015.31
2023-05-05T11:00:03.098Z,1015.16
2023-05-05T11:01:03.110Z,1015.20
2023-05-05T11:02:03.087Z,1015.15
2023-05-05T11:03:03.216Z,1015.10
2023-05-05T11:04:03.115Z,1015.20
2023-05-05T11:05:03.029Z,1015.09
2023-05-05T11:06:03.022Z,1015.10
2023-05-05T11:07:03.017Z,1015.12
2023-05-05T11:08:03.045Z,1015.12
2023-05-05T11:09:03.018Z,1015.13
2023-05-05T11:10:02.981Z,1015.06
2023-05-05T11:11:02.968Z,1015.04
2023-05-05T11:12:02.968Z,1014.99
2023-05-05T11:13:03.194Z,1015.05
2023-05-05T11:14:03.030Z,1015.05
2023-05-05T11:15:02.919Z,1015.00
2023-05-05T11:16:02.908Z,1015.10
2023-05-05T11:17:02.939Z,1015.01
2023-05-05T11:18:06.678Z,1014.99
2023-05-05T11:19:02.882Z,1014.99
2023-05-05T11:20:02.879Z,1015.06
2023-05-05T11:21:02.866Z,1015.14
2023-05-05T11:22:02.852Z,1015.20
2023-05-05T11:23:02.862Z,1015.00
2023-05-05T11:24:02.821Z,1015.00
2023-05-05T11:25:02.825Z,1014.98
2023-05-05T11:26:02.815Z,1014.86
2023-05-05T11:27:02.797Z,1014.93
2023-05-05T11:28:02.779Z,1014.90
2023-05-05T11:29:02.768Z,1015.00
2023-05-05T11:30:02.913Z,1014.89
2023-05-05T11:31:02.762Z,1014.92
2023-05-05T11:32:02.744Z,1015.02
2023-05-05T11:33:02.792Z,1015.00
2023-05-05T11:34:02.752Z,1015.01
2023-05-05T11:35:02.700Z,1014.98
2023-05-05T11:36:05.806Z,1014.92
2023-05-05T11:37:02.681Z,1014.99
2023-05-05T11:38:02.663Z,1014.92
2023-05-05T11:39:02.667Z,1014.87
2023-05-05T11:40:02.662Z,1014.83
2023-05-05T11:41:02.649Z,1014.73
2023-05-05T11:42:08.025Z,1014.87
2023-05-05T11:43:03.607Z,1014.78
2023-05-05T11:44:02.620Z,1014.71
2023-05-05T11:45:02.606Z,1014.68
2023-05-05T11:46:02.717Z,1014.65
2023-05-05T11:47:02.615Z,1014.67
2023-05-05T11:48:02.576Z,1014.67
2023-05-05T11:49:02.547Z,1014.73
2023-05-05T11:50:02.550Z,1014.67
2023-05-05T11:51:02.529Z,1014.66
2023-05-05T11:52:02.515Z,1014.65
2023-05-05T11:53:02.524Z,1014.70
2023-05-05T11:54:02.501Z,1014.59
2023-05-05T11:55:02.488Z,1014.58
2023-05-05T11:56:02.470Z,1014.60
2023-05-05T11:57:02.462Z,1014.62
2023-05-05T11:58:02.453Z,1014.65
2023-05-05T11:59:02.441Z,1014.62
2023-05-05T12:00:02.466Z,1014.55
2023-05-05T12:01:02.410Z,1014.50
2023-05-05T12:02:02.550Z,1014.61
2023-05-05T12:03:02.530Z,1014.57
2023-05-05T12:04:02.514Z,1014.57
2023-05-05T12:05:02.435Z,1014.61